Time;durP1;ratioP1;P1;durP2;ratioP2;P2;SDS_P1;SDS_P2;PMS_P1;PMS_P2;Temp;Humidity;BMP_temperature;BMP_pressure;BME280_temperature;BME280_humidity;BME280_pressure;Samples;Min_cycle;Max_cycle;Signal;HPM_P1;HPM_P2
2023/08/31 00:01:34;;;;;;;;;;;13.90;99.90;;;;;;7334636;19;109375;-65
2023/08/31 00:04:01;;;;;;;;;;;13.90;99.90;;;;;;7328168;19;109201;-65
2023/08/31 00:06:28;;;;;;;;;;;13.90;99.90;;;;;;7329223;19;109803;-65
2023/08/31 00:08:55;;;;;;;;;;;13.90;99.90;;;;;;7332909;19;108790;-65
2023/08/31 00:11:25;;;;;;;;;;;13.80;99.90;;;;;;7331044;19;110017;-66
2023/08/31 00:13:53;;;;;;;;;;;13.80;99.90;;;;;;7330029;19;109389;-66
2023/08/31 00:16:23;;;;;;;;;;;13.70;99.90;;;;;;7328948;19;108949;-66
2023/08/31 00:18:51;;;;;;;;;;;13.80;99.90;;;;;;7330653;19;108647;-65
2023/08/31 00:21:18;;;;;;;;;;;13.80;99.90;;;;;;7330079;19;110968;-65
2023/08/31 00:23:45;;;;;;;;;;;13.70;99.90;;;;;;7334995;19;108576;-65
2023/08/31 00:26:12;;;;;;;;;;;13.70;99.90;;;;;;7330267;19;109135;-65
2023/08/31 00:28:40;;;;;;;;;;;13.70;99.90;;;;;;7328790;19;109471;-65
2023/08/31 00:31:07;;;;;;;;;;;13.70;99.90;;;;;;7330995;19;109229;-65
2023/08/31 00:33:34;;;;;;;;;;;13.70;99.90;;;;;;7332758;19;109045;-65
2023/08/31 00:36:03;;;;;;;;;;;13.70;99.90;;;;;;7335468;19;112996;-65
2023/08/31 00:38:30;;;;;;;;;;;13.70;99.90;;;;;;7335274;19;109420;-65
2023/08/31 00:40:57;;;;;;;;;;;13.80;99.90;;;;;;7335512;19;109085;-65
2023/08/31 00:43:25;;;;;;;;;;;13.80;99.90;;;;;;7336972;19;108585;-65
2023/08/31 00:45:57;;;;;;;;;;;13.70;99.90;;;;;;7342054;19;109237;-65
2023/08/31 00:48:27;;;;;;;;;;;13.70;99.90;;;;;;7336856;19;109284;-65
2023/08/31 00:50:54;;;;;;;;;;;13.60;99.90;;;;;;7335588;19;110219;-65
2023/08/31 00:53:22;;;;;;;;;;;13.60;99.90;;;;;;7336400;19;109148;-65
2023/08/31 00:55:49;;;;;;;;;;;13.50;99.90;;;;;;7332527;19;108910;-65
2023/08/31 00:58:17;;;;;;;;;;;13.50;99.90;;;;;;7336900;19;108747;-65
2023/08/31 01:00:49;;;;;;;;;;;13.50;99.90;;;;;;7336429;19;109120;-65
2023/08/31 01:03:25;;;;;;;;;;;13.40;99.90;;;;;;7333903;19;108500;-65
2023/08/31 01:05:58;;;;;;;;;;;13.40;99.90;;;;;;7340056;19;109509;-65
2023/08/31 01:08:31;;;;;;;;;;;13.30;99.90;;;;;;7336701;19;108992;-65
2023/08/31 01:11:00;;;;;;;;;;;13.30;99.90;;;;;;7335408;19;109155;-65
2023/08/31 01:13:28;;;;;;;;;;;13.30;99.90;;;;;;7337446;19;109466;-65
2023/08/31 01:15:58;;;;;;;;;;;13.20;99.90;;;;;;7334859;19;109566;-65
2023/08/31 01:18:26;;;;;;;;;;;13.20;99.90;;;;;;7339651;19;109101;-66
2023/08/31 01:21:08;;;;;;;;;;;13.20;99.90;;;;;;7332605;19;109653;-66
2023/08/31 01:23:52;;;;;;;;;;;13.20;99.90;;;;;;7331527;19;110593;-66
2023/08/31 01:26:20;;;;;;;;;;;13.10;99.90;;;;;;7333744;19;109424;-66
2023/08/31 01:28:47;;;;;;;;;;;13.10;99.90;;;;;;7337824;19;109378;-66
2023/08/31 01:31:15;;;;;;;;;;;13.10;99.90;;;;;;7333868;19;108858;-66
2023/08/31 01:33:42;;;;;;;;;;;13.20;99.90;;;;;;7336337;19;110387;-66
2023/08/31 01:36:23;;;;;;;;;;;13.10;99.90;;;;;;7337140;19;109487;-66
2023/08/31 01:38:54;;;;;;;;;;;13.10;99.90;;;;;;7332621;19;109066;-65
2023/08/31 01:41:22;;;;;;;;;;;13.10;99.90;;;;;;7334380;19;110039;-65
2023/08/31 01:43:51;;;;;;;;;;;13.10;99.90;;;;;;7335572;19;110389;-65
2023/08/31 01:46:19;;;;;;;;;;;13.10;99.90;;;;;;7331987;19;109257;-66
2023/08/31 01:48:46;;;;;;;;;;;13.10;99.90;;;;;;7333976;19;109124;-65
2023/08/31 01:51:13;;;;;;;;;;;13.10;99.90;;;;;;7338372;19;108739;-66
2023/08/31 01:53:40;;;;;;;;;;;13.00;99.90;;;;;;7334504;19;109134;-66
2023/08/31 01:56:07;;;;;;;;;;;12.90;99.90;;;;;;7332843;19;109254;-66
2023/08/31 01:58:35;;;;;;;;;;;12.80;99.90;;;;;;7333989;19;109111;-66
2023/08/31 02:01:02;;;;;;;;;;;12.70;99.90;;;;;;7334796;19;109726;-65
2023/08/31 02:03:29;;;;;;;;;;;12.80;99.90;;;;;;7331852;19;108906;-66
2023/08/31 02:05:57;;;;;;;;;;;12.80;99.90;;;;;;7337258;19;109236;-65
2023/08/31 02:08:24;;;;;;;;;;;12.70;99.90;;;;;;7332842;19;111749;-65
2023/08/31 02:10:51;;;;;;;;;;;12.70;99.90;;;;;;7335512;19;113813;-65
2023/08/31 02:13:18;;;;;;;;;;;12.70;99.90;;;;;;7340204;19;108703;-65
2023/08/31 02:15:45;;;;;;;;;;;12.60;99.90;;;;;;7328708;19;108552;-66
2023/08/31 02:18:13;;;;;;;;;;;12.60;99.90;;;;;;7336577;19;108586;-66
2023/08/31 02:20:40;;;;;;;;;;;12.60;99.90;;;;;;7333338;19;110723;-65
2023/08/31 02:23:07;;;;;;;;;;;12.60;99.90;;;;;;7336083;19;109698;-66
2023/08/31 02:25:34;;;;;;;;;;;12.60;99.90;;;;;;7332877;19;109136;-65
2023/08/31 02:28:01;;;;;;;;;;;12.60;99.90;;;;;;7332891;19;109130;-65
2023/08/31 02:30:28;;;;;;;;;;;12.60;99.90;;;;;;7332339;19;108362;-65
2023/08/31 02:32:55;;;;;;;;;;;12.60;99.90;;;;;;7334715;19;109405;-65
2023/08/31 02:35:22;;;;;;;;;;;12.60;99.90;;;;;;7336876;19;110033;-65
2023/08/31 02:37:50;;;;;;;;;;;12.60;99.90;;;;;;7336420;19;108611;-65
2023/08/31 02:40:17;;;;;;;;;;;12.60;99.90;;;;;;7333457;19;109125;-65
2023/08/31 02:42:44;;;;;;;;;;;12.60;99.90;;;;;;7333387;19;110522;-65
2023/08/31 02:45:11;;;;;;;;;;;12.60;99.90;;;;;;7336909;19;108997;-65
2023/08/31 02:47:39;;;;;;;;;;;12.60;99.90;;;;;;7334168;19;109849;-66
2023/08/31 02:50:06;;;;;;;;;;;12.60;99.90;;;;;;7331507;19;108611;-65
2023/08/31 02:52:33;;;;;;;;;;;12.60;99.90;;;;;;7333901;19;109463;-66
2023/08/31 02:55:01;;;;;;;;;;;12.60;99.90;;;;;;7329415;19;111428;-65
2023/08/31 02:57:28;;;;;;;;;;;12.60;99.90;;;;;;7335285;19;109108;-65
2023/08/31 02:59:55;;;;;;;;;;;12.50;99.90;;;;;;7333648;19;109342;-65
2023/08/31 03:02:22;;;;;;;;;;;12.50;99.90;;;;;;7331090;19;109274;-66
2023/08/31 03:04:50;;;;;;;;;;;12.50;99.90;;;;;;7335365;19;110258;-65
2023/08/31 03:07:17;;;;;;;;;;;12.50;99.90;;;;;;7331033;19;110127;-65
2023/08/31 03:09:48;;;;;;;;;;;12.50;99.90;;;;;;7333618;19;109141;-66
2023/08/31 03:12:15;;;;;;;;;;;12.60;99.90;;;;;;7332402;19;108687;-65
2023/08/31 03:14:42;;;;;;;;;;;12.60;99.90;;;;;;7331800;19;110054;-66
2023/08/31 03:17:09;;;;;;;;;;;12.60;99.90;;;;;;7338171;19;108533;-66
2023/08/31 03:19:36;;;;;;;;;;;12.60;99.90;;;;;;7332936;19;113633;-66
2023/08/31 03:22:03;;;;;;;;;;;12.50;99.90;;;;;;7336200;19;109144;-65
2023/08/31 03:24:32;;;;;;;;;;;12.60;99.90;;;;;;7340894;19;108223;-64
2023/08/31 03:26:59;;;;;;;;;;;12.60;99.90;;;;;;7331375;19;109770;-65
2023/08/31 03:29:28;;;;;;;;;;;12.50;99.90;;;;;;7333489;19;108836;-65
2023/08/31 03:31:55;;;;;;;;;;;12.60;99.90;;;;;;7332306;19;110777;-64
2023/08/31 03:34:23;;;;;;;;;;;12.60;99.90;;;;;;7330606;19;110132;-67
2023/08/31 03:36:50;;;;;;;;;;;12.60;99.90;;;;;;7346273;19;109444;-66
2023/08/31 03:39:17;;;;;;;;;;;12.60;99.90;;;;;;7345602;19;108792;-65
2023/08/31 03:41:44;;;;;;;;;;;12.60;99.90;;;;;;7347668;19;108585;-65
2023/08/31 03:44:11;;;;;;;;;;;12.60;99.90;;;;;;7338896;19;109000;-68
2023/08/31 03:46:38;;;;;;;;;;;12.60;99.90;;;;;;7325189;19;109178;-68
2023/08/31 03:49:06;;;;;;;;;;;12.60;99.90;;;;;;7331055;19;110249;-73
2023/08/31 03:51:33;;;;;;;;;;;12.60;99.90;;;;;;7332060;19;109613;-71
2023/08/31 03:54:00;;;;;;;;;;;12.60;99.90;;;;;;7330186;19;109140;-74
2023/08/31 03:56:27;;;;;;;;;;;12.60;99.90;;;;;;7330222;19;110764;-70
2023/08/31 03:58:54;;;;;;;;;;;12.50;99.90;;;;;;7333800;19;108958;-73
2023/08/31 04:01:21;;;;;;;;;;;12.50;99.90;;;;;;7333129;19;110033;-73
2023/08/31 04:03:48;;;;;;;;;;;12.50;99.90;;;;;;7332535;19;110275;-66
2023/08/31 04:06:16;;;;;;;;;;;12.50;99.90;;;;;;7329938;19;110099;-66
2023/08/31 04:08:43;;;;;;;;;;;12.50;99.90;;;;;;7335378;19;108687;-66
2023/08/31 04:11:10;;;;;;;;;;;12.50;99.90;;;;;;7334702;19;110829;-69
2023/08/31 04:13:37;;;;;;;;;;;12.50;99.90;;;;;;7340108;19;110489;-67
2023/08/31 04:16:04;;;;;;;;;;;12.50;99.90;;;;;;7335670;19;109766;-69
2023/08/31 04:18:31;;;;;;;;;;;12.50;99.90;;;;;;7337832;19;109541;-66
2023/08/31 04:21:00;;;;;;;;;;;12.50;99.90;;;;;;7337313;19;109088;-66
2023/08/31 04:23:27;;;;;;;;;;;12.50;99.90;;;;;;7341204;19;109987;-67
2023/08/31 04:25:54;;;;;;;;;;;12.50;99.90;;;;;;7338478;19;109472;-67
2023/08/31 04:28:21;;;;;;;;;;;12.50;99.90;;;;;;7334430;19;110976;-66
2023/08/31 04:30:49;;;;;;;;;;;12.50;99.90;;;;;;7334642;19;110574;-68
2023/08/31 04:33:16;;;;;;;;;;;12.50;99.90;;;;;;7337191;19;110077;-65
2023/08/31 04:35:43;;;;;;;;;;;12.40;99.90;;;;;;7339198;19;110040;-65
2023/08/31 04:38:10;;;;;;;;;;;12.40;99.90;;;;;;7337077;19;108410;-65
2023/08/31 04:40:38;;;;;;;;;;;12.40;99.90;;;;;;7336084;19;109495;-65
2023/08/31 04:43:05;;;;;;;;;;;12.40;99.90;;;;;;7336759;19;109191;-65
2023/08/31 04:45:32;;;;;;;;;;;12.40;99.90;;;;;;7338915;19;109015;-65
2023/08/31 04:47:59;;;;;;;;;;;12.40;99.90;;;;;;7336995;19;109566;-65
2023/08/31 04:50:26;;;;;;;;;;;12.40;99.90;;;;;;7334777;19;109859;-65
2023/08/31 04:52:53;;;;;;;;;;;12.40;99.90;;;;;;7338617;19;110248;-65
2023/08/31 04:55:21;;;;;;;;;;;12.40;99.90;;;;;;7334334;19;111028;-86
2023/08/31 04:57:49;;;;;;;;;;;12.40;99.90;;;;;;7335020;19;109587;-86
2023/08/31 05:00:16;;;;;;;;;;;12.40;99.90;;;;;;7326721;19;110100;-86
2023/08/31 05:02:44;;;;;;;;;;;12.40;99.90;;;;;;7330797;19;109743;-86
2023/08/31 05:05:11;;;;;;;;;;;12.50;99.90;;;;;;7329143;19;110509;-87
2023/08/31 05:07:38;;;;;;;;;;;12.50;99.90;;;;;;7338773;19;110426;-87
2023/08/31 05:10:06;;;;;;;;;;;12.50;99.90;;;;;;7330533;19;110280;-87
2023/08/31 05:12:33;;;;;;;;;;;12.50;99.90;;;;;;7334183;19;110419;-87
2023/08/31 05:15:00;;;;;;;;;;;12.50;99.90;;;;;;7329247;19;110273;-88
2023/08/31 05:17:28;;;;;;;;;;;12.50;99.90;;;;;;7334543;19;108909;-87
2023/08/31 05:19:55;;;;;;;;;;;12.50;99.90;;;;;;7330035;19;109860;-86
2023/08/31 05:22:22;;;;;;;;;;;12.50;99.90;;;;;;7329228;19;109456;-86
2023/08/31 05:24:52;;;;;;;;;;;12.50;99.90;;;;;;7325301;19;109084;-86
2023/08/31 05:27:20;;;;;;;;;;;12.50;99.90;;;;;;7334415;19;111936;-86
2023/08/31 05:29:50;;;;;;;;;;;12.50;99.90;;;;;;7331538;19;110287;-86
2023/08/31 05:32:17;;;;;;;;;;;12.50;99.90;;;;;;7325010;19;113038;-84
2023/08/31 05:34:44;;;;;;;;;;;12.60;99.90;;;;;;7328780;19;109093;-86
2023/08/31 05:37:11;;;;;;;;;;;12.60;99.90;;;;;;7330834;19;109470;-86
2023/08/31 05:39:38;;;;;;;;;;;12.60;99.90;;;;;;7324363;19;111116;-86
2023/08/31 05:42:06;;;;;;;;;;;12.70;99.90;;;;;;7329527;19;109324;-86
2023/08/31 05:44:33;;;;;;;;;;;12.70;99.90;;;;;;7331021;19;109301;-86
2023/08/31 05:47:03;;;;;;;;;;;12.70;99.90;;;;;;7323289;19;113179;-86
2023/08/31 05:49:30;;;;;;;;;;;12.80;99.90;;;;;;7332801;19;109768;-87
2023/08/31 05:52:01;;;;;;;;;;;12.90;99.90;;;;;;7323985;19;129313;-86
2023/08/31 05:54:28;;;;;;;;;;;13.00;99.90;;;;;;7327785;19;109606;-88
2023/08/31 05:56:55;;;;;;;;;;;13.00;99.90;;;;;;7326272;19;109250;-89
2023/08/31 05:59:22;;;;;;;;;;;13.20;99.90;;;;;;7331971;19;113115;-67
2023/08/31 06:01:49;;;;;;;;;;;13.20;99.90;;;;;;7334179;19;109490;-67
2023/08/31 06:04:20;;;;;;;;;;;13.30;99.90;;;;;;7335584;19;108953;-66
2023/08/31 06:06:47;;;;;;;;;;;13.50;99.90;;;;;;7331810;19;109943;-67
2023/08/31 06:09:14;;;;;;;;;;;13.60;99.90;;;;;;7335003;19;108720;-67
2023/08/31 06:11:41;;;;;;;;;;;13.70;99.90;;;;;;7338981;19;110927;-67
2023/08/31 06:14:08;;;;;;;;;;;13.70;99.90;;;;;;7337654;19;110760;-68
2023/08/31 06:16:36;;;;;;;;;;;13.80;99.90;;;;;;7330840;19;109201;-67
2023/08/31 06:19:03;;;;;;;;;;;13.90;99.90;;;;;;7336545;19;109552;-68
2023/08/31 06:21:30;;;;;;;;;;;14.00;99.90;;;;;;7332177;19;108798;-68
2023/08/31 06:23:57;;;;;;;;;;;14.10;99.90;;;;;;7335597;19;109094;-67
2023/08/31 06:26:24;;;;;;;;;;;14.20;99.90;;;;;;7331472;19;110068;-68
2023/08/31 06:28:51;;;;;;;;;;;14.30;99.90;;;;;;7331658;19;109122;-67
2023/08/31 06:31:19;;;;;;;;;;;14.30;99.90;;;;;;7330947;19;110500;-68
2023/08/31 06:33:46;;;;;;;;;;;14.40;99.90;;;;;;7339651;19;109477;-68
2023/08/31 06:36:13;;;;;;;;;;;14.40;99.90;;;;;;7334279;19;108617;-67
2023/08/31 06:38:40;;;;;;;;;;;14.50;99.90;;;;;;7330604;19;109586;-67
2023/08/31 06:41:08;;;;;;;;;;;14.60;99.90;;;;;;7332212;19;111049;-67
2023/08/31 06:43:36;;;;;;;;;;;14.60;99.90;;;;;;7329876;19;111262;-67
2023/08/31 06:46:03;;;;;;;;;;;14.70;99.90;;;;;;7333085;19;109383;-67
2023/08/31 06:48:49;;;;;;;;;;;14.80;99.90;;;;;;7330413;19;109449;-66
2023/08/31 06:51:16;;;;;;;;;;;14.90;99.90;;;;;;7333895;19;108599;-67
2023/08/31 06:53:43;;;;;;;;;;;14.90;99.90;;;;;;7333528;19;109153;-67
2023/08/31 06:56:10;;;;;;;;;;;15.00;99.90;;;;;;7338061;19;108498;-67
2023/08/31 06:58:38;;;;;;;;;;;15.10;99.90;;;;;;7329699;19;110641;-67
2023/08/31 07:01:08;;;;;;;;;;;15.20;99.90;;;;;;7331611;19;109081;-67
2023/08/31 07:03:35;;;;;;;;;;;15.30;99.90;;;;;;7331126;19;109348;-67
2023/08/31 07:06:03;;;;;;;;;;;15.40;99.90;;;;;;7335015;19;109994;-67
2023/08/31 07:08:30;;;;;;;;;;;15.50;99.90;;;;;;7329854;19;109665;-66
2023/08/31 07:10:57;;;;;;;;;;;15.50;99.90;;;;;;7334257;19;109190;-67
2023/08/31 07:13:24;;;;;;;;;;;15.50;99.90;;;;;;7332443;19;109936;-67
2023/08/31 07:15:51;;;;;;;;;;;15.50;99.90;;;;;;7330743;19;109783;-67
2023/08/31 07:18:19;;;;;;;;;;;15.50;99.90;;;;;;7337505;19;108355;-67
2023/08/31 07:20:46;;;;;;;;;;;15.60;99.90;;;;;;7332648;19;108600;-67
2023/08/31 07:23:13;;;;;;;;;;;15.70;99.90;;;;;;7331128;19;109879;-67
2023/08/31 07:25:42;;;;;;;;;;;15.80;99.90;;;;;;7334000;19;109351;-67
2023/08/31 07:28:10;;;;;;;;;;;15.80;99.90;;;;;;7331421;19;108834;-67
2023/08/31 07:30:37;;;;;;;;;;;16.00;99.90;;;;;;7333747;19;108591;-67
2023/08/31 07:33:05;;;;;;;;;;;16.10;99.90;;;;;;7333347;19;110205;-67
2023/08/31 07:35:52;;;;;;;;;;;16.10;99.90;;;;;;7331691;19;109048;-68
2023/08/31 07:38:19;;;;;;;;;;;16.20;99.90;;;;;;7336894;19;108982;-67
2023/08/31 07:40:46;;;;;;;;;;;16.30;99.90;;;;;;7330287;19;109448;-67
2023/08/31 07:43:16;;;;;;;;;;;16.40;99.90;;;;;;7329224;19;110433;-67
2023/08/31 07:45:44;;;;;;;;;;;16.50;99.90;;;;;;7336022;19;109514;-68
2023/08/31 07:48:11;;;;;;;;;;;16.60;99.90;;;;;;7334820;19;110648;-68
2023/08/31 07:50:40;;;;;;;;;;;16.60;99.90;;;;;;7338821;19;108750;-68
2023/08/31 07:53:07;;;;;;;;;;;16.80;99.90;;;;;;7337885;19;110133;-68
2023/08/31 07:55:35;;;;;;;;;;;16.80;99.90;;;;;;7335413;19;108391;-69
2023/08/31 07:58:02;;;;;;;;;;;16.90;99.90;;;;;;7338593;19;110172;-69
2023/08/31 08:00:29;;;;;;;;;;;17.00;99.90;;;;;;7341495;19;110344;-69
2023/08/31 08:02:58;;;;;;;;;;;17.10;99.90;;;;;;7339000;19;108532;-70
2023/08/31 08:05:26;;;;;;;;;;;17.20;99.90;;;;;;7338387;19;109657;-68
2023/08/31 08:07:54;;;;;;;;;;;17.20;99.90;;;;;;7339846;19;109020;-69
2023/08/31 08:10:21;;;;;;;;;;;17.30;99.90;;;;;;7339409;19;109725;-69
2023/08/31 08:12:48;;;;;;;;;;;17.40;99.90;;;;;;7338582;19;110196;-69
2023/08/31 08:15:15;;;;;;;;;;;17.50;99.90;;;;;;7338659;19;108436;-70
2023/08/31 08:17:42;;;;;;;;;;;17.60;99.90;;;;;;7336890;19;110002;-69
2023/08/31 08:20:09;;;;;;;;;;;17.60;99.90;;;;;;7337829;19;110570;-69
2023/08/31 08:22:37;;;;;;;;;;;17.70;99.90;;;;;;7346343;19;108998;-69
2023/08/31 08:25:04;;;;;;;;;;;17.80;99.90;;;;;;7335745;19;110603;-70
2023/08/31 08:27:32;;;;;;;;;;;17.90;99.90;;;;;;7338202;19;112686;-70
2023/08/31 08:30:00;;;;;;;;;;;18.00;99.90;;;;;;7336565;19;109441;-70
2023/08/31 08:32:27;;;;;;;;;;;18.10;99.90;;;;;;7338020;19;111297;-69
2023/08/31 08:34:54;;;;;;;;;;;18.20;99.90;;;;;;7336270;19;108570;-69
2023/08/31 08:37:21;;;;;;;;;;;18.30;99.90;;;;;;7336662;19;108835;-70
2023/08/31 08:39:49;;;;;;;;;;;18.30;99.90;;;;;;7335871;19;109205;-73
2023/08/31 08:42:20;;;;;;;;;;;18.30;99.90;;;;;;7333613;19;109747;-69
2023/08/31 08:44:47;;;;;;;;;;;18.30;99.90;;;;;;7345628;19;109950;-75
2023/08/31 08:47:15;;;;;;;;;;;18.30;99.90;;;;;;7336263;19;110106;-75
2023/08/31 08:49:43;;;;;;;;;;;18.40;99.90;;;;;;7339363;19;109867;-75
2023/08/31 08:52:10;;;;;;;;;;;18.40;99.90;;;;;;7336304;19;109194;-75
2023/08/31 08:54:38;;;;;;;;;;;18.60;99.90;;;;;;7339240;19;108701;-74
2023/08/31 08:57:06;;;;;;;;;;;18.80;99.90;;;;;;7336674;19;108767;-75
2023/08/31 08:59:33;;;;;;;;;;;18.90;99.90;;;;;;7336737;19;109157;-74
2023/08/31 09:02:01;;;;;;;;;;;18.90;99.90;;;;;;7336150;19;110062;-75
2023/08/31 09:04:40;;;;;;;;;;;19.00;99.90;;;;;;7336841;19;108895;-75
2023/08/31 09:07:07;;;;;;;;;;;19.00;99.90;;;;;;7342491;19;110182;-74
2023/08/31 09:09:50;;;;;;;;;;;19.20;99.90;;;;;;7337664;19;109440;-74
2023/08/31 09:12:18;;;;;;;;;;;19.20;99.90;;;;;;7339769;19;109211;-74
2023/08/31 09:14:56;;;;;;;;;;;19.20;99.90;;;;;;7339037;19;108359;-73
2023/08/31 09:17:25;;;;;;;;;;;19.20;99.90;;;;;;7340729;19;109087;-74
2023/08/31 09:20:00;;;;;;;;;;;19.30;99.90;;;;;;7339480;19;109741;-74
2023/08/31 09:22:27;;;;;;;;;;;19.30;99.90;;;;;;7338047;19;108940;-74
2023/08/31 09:24:54;;;;;;;;;;;19.50;99.90;;;;;;7338548;19;108747;-75
2023/08/31 09:27:24;;;;;;;;;;;19.60;99.90;;;;;;7339676;19;109228;-74
2023/08/31 09:29:54;;;;;;;;;;;19.70;99.90;;;;;;7343283;19;108265;-75
2023/08/31 09:32:21;;;;;;;;;;;19.80;99.90;;;;;;7336919;19;112373;-74
2023/08/31 09:34:49;;;;;;;;;;;19.80;99.90;;;;;;7340270;19;108506;-74
2023/08/31 09:37:25;;;;;;;;;;;19.80;99.90;;;;;;7338274;19;109823;-74
2023/08/31 09:39:52;;;;;;;;;;;19.90;99.90;;;;;;7337118;19;110629;-74
2023/08/31 09:42:20;;;;;;;;;;;19.90;99.90;;;;;;7337869;19;108525;-74
2023/08/31 09:44:49;;;;;;;;;;;20.00;99.90;;;;;;7337742;19;108737;-74
2023/08/31 09:47:17;;;;;;;;;;;20.10;99.90;;;;;;7336485;19;110590;-74
2023/08/31 09:49:44;;;;;;;;;;;20.10;99.90;;;;;;7345611;19;108655;-74
2023/08/31 09:52:12;;;;;;;;;;;20.20;99.90;;;;;;7338824;19;109834;-74
2023/08/31 09:54:41;;;;;;;;;;;20.20;99.90;;;;;;7335846;19;110115;-74
2023/08/31 09:57:09;;;;;;;;;;;20.20;99.90;;;;;;7340329;19;108660;-74
2023/08/31 09:59:38;;;;;;;;;;;20.30;99.90;;;;;;7338198;19;109903;-74
2023/08/31 10:02:06;;;;;;;;;;;20.50;99.90;;;;;;7333761;19;108816;-74
2023/08/31 10:04:34;;;;;;;;;;;20.50;99.90;;;;;;7337396;19;108902;-74
2023/08/31 10:07:03;;;;;;;;;;;20.50;99.90;;;;;;7334228;19;109470;-74
2023/08/31 10:09:30;;;;;;;;;;;20.60;99.90;;;;;;7334726;19;109155;-74
2023/08/31 10:11:58;;;;;;;;;;;20.70;99.90;;;;;;7341395;19;110441;-74
2023/08/31 10:14:25;;;;;;;;;;;20.70;99.90;;;;;;7337716;19;108928;-75
2023/08/31 10:16:53;;;;;;;;;;;20.70;99.90;;;;;;7336972;19;108420;-75
2023/08/31 10:19:21;;;;;;;;;;;20.90;99.90;;;;;;7333864;19;109441;-74
2023/08/31 10:21:48;;;;;;;;;;;21.00;99.90;;;;;;7337191;19;109666;-75
2023/08/31 10:24:16;;;;;;;;;;;21.10;99.90;;;;;;7335176;19;108798;-75
2023/08/31 10:26:43;;;;;;;;;;;21.20;99.90;;;;;;7337820;19;109447;-74
2023/08/31 10:29:25;;;;;;;;;;;21.30;99.90;;;;;;7337456;19;109961;-74
2023/08/31 10:31:52;;;;;;;;;;;21.40;99.90;;;;;;7335882;19;109528;-74
2023/08/31 10:34:33;;;;;;;;;;;21.40;99.90;;;;;;7342220;19;109075;-75
2023/08/31 10:37:03;;;;;;;;;;;21.40;99.90;;;;;;7338155;19;108600;-75
2023/08/31 10:39:40;;;;;;;;;;;21.40;99.90;;;;;;7335058;19;109556;-75
2023/08/31 10:42:07;;;;;;;;;;;21.50;99.90;;;;;;7334733;19;108625;-75
2023/08/31 10:44:34;;;;;;;;;;;21.50;99.90;;;;;;7332322;19;109073;-74
2023/08/31 10:47:05;;;;;;;;;;;21.60;99.90;;;;;;7332230;19;110153;-74
2023/08/31 10:49:36;;;;;;;;;;;21.70;99.90;;;;;;7335462;19;109876;-74
2023/08/31 10:52:19;;;;;;;;;;;21.70;99.90;;;;;;7333797;19;108902;-74
2023/08/31 10:55:07;;;;;;;;;;;21.70;99.90;;;;;;7333561;19;108977;-74
2023/08/31 10:57:35;;;;;;;;;;;21.50;99.90;;;;;;7340975;19;108737;-75
2023/08/31 11:00:03;;;;;;;;;;;21.40;99.90;;;;;;7330674;19;110663;-74
2023/08/31 11:02:33;;;;;;;;;;;21.50;99.90;;;;;;7334560;19;108544;-75
2023/08/31 11:05:09;;;;;;;;;;;21.50;99.90;;;;;;7332942;19;109256;-74
2023/08/31 11:07:38;;;;;;;;;;;21.60;99.90;;;;;;7333936;19;110253;-74
2023/08/31 11:10:08;;;;;;;;;;;21.70;99.90;;;;;;7335366;19;108947;-74
2023/08/31 11:12:36;;;;;;;;;;;21.80;99.90;;;;;;7335347;19;109061;-75
2023/08/31 11:15:06;;;;;;;;;;;21.80;99.90;;;;;;7332607;19;111591;-78
2023/08/31 11:17:33;;;;;;;;;;;21.80;99.90;;;;;;7332632;19;109274;-76
2023/08/31 11:20:01;;;;;;;;;;;21.80;99.90;;;;;;7341585;19;109413;-75
2023/08/31 11:22:28;;;;;;;;;;;21.80;99.90;;;;;;7336189;19;108704;-75
2023/08/31 11:24:56;;;;;;;;;;;22.00;99.90;;;;;;7334125;19;108867;-77
2023/08/31 11:27:23;;;;;;;;;;;22.10;99.90;;;;;;7334835;19;109501;-77
2023/08/31 11:29:50;;;;;;;;;;;22.10;99.90;;;;;;7334299;19;108757;-76
2023/08/31 11:32:17;;;;;;;;;;;22.10;99.90;;;;;;7334417;19;108742;-75
2023/08/31 11:34:45;;;;;;;;;;;22.10;99.90;;;;;;7333549;19;109940;-74
2023/08/31 11:37:15;;;;;;;;;;;22.20;99.90;;;;;;7334947;19;108558;-76
2023/08/31 11:39:49;;;;;;;;;;;22.10;99.90;;;;;;7339882;19;110859;-74
2023/08/31 11:42:18;;;;;;;;;;;22.00;99.90;;;;;;7335489;19;110104;-75
2023/08/31 11:45:05;;;;;;;;;;;22.00;99.90;;;;;;7334209;19;108723;-74
2023/08/31 11:47:32;;;;;;;;;;;22.00;99.90;;;;;;7329325;19;111356;-73
2023/08/31 11:50:01;;;;;;;;;;;22.00;99.90;;;;;;7332743;19;108919;-75
2023/08/31 11:52:30;;;;;;;;;;;22.10;99.90;;;;;;7333479;19;108475;-74
2023/08/31 11:54:57;;;;;;;;;;;22.20;99.90;;;;;;7332858;19;111125;-74
2023/08/31 11:57:30;;;;;;;;;;;22.20;99.90;;;;;;7334056;19;109235;-75
2023/08/31 11:59:58;;;;;;;;;;;22.30;99.90;;;;;;7330749;19;109091;-73
2023/08/31 12:02:25;;;;;;;;;;;22.30;99.90;;;;;;7342415;19;109096;-75
2023/08/31 12:04:52;;;;;;;;;;;22.20;99.90;;;;;;7325872;19;110063;-74
2023/08/31 12:07:19;;;;;;;;;;;22.20;99.90;;;;;;7333594;19;109725;-74
2023/08/31 12:09:47;;;;;;;;;;;22.20;99.90;;;;;;7332237;19;108548;-73
2023/08/31 12:12:15;;;;;;;;;;;22.10;99.90;;;;;;7333589;19;108485;-74
2023/08/31 12:14:52;;;;;;;;;;;22.00;99.90;;;;;;7337173;19;110730;-74
2023/08/31 12:17:19;;;;;;;;;;;21.90;99.90;;;;;;7332243;19;110530;-74
2023/08/31 12:19:46;;;;;;;;;;;21.90;99.90;;;;;;7334336;19;113489;-74
2023/08/31 12:22:13;;;;;;;;;;;21.90;99.90;;;;;;7330461;19;109129;-74
2023/08/31 12:24:42;;;;;;;;;;;21.90;99.90;;;;;;7340539;19;108547;-74
2023/08/31 12:27:09;;;;;;;;;;;22.00;99.90;;;;;;7334632;19;109433;-74
2023/08/31 12:29:37;;;;;;;;;;;22.00;99.90;;;;;;7334374;19;108892;-74
2023/08/31 12:32:04;;;;;;;;;;;22.10;99.90;;;;;;7338999;19;108628;-73
2023/08/31 12:34:32;;;;;;;;;;;22.00;99.90;;;;;;7339773;19;109161;-73
2023/08/31 12:37:01;;;;;;;;;;;22.00;99.90;;;;;;7342020;19;109413;-73
2023/08/31 12:39:28;;;;;;;;;;;22.00;99.90;;;;;;7337726;19;110335;-74
2023/08/31 12:41:56;;;;;;;;;;;22.10;99.90;;;;;;7339956;19;111272;-74
2023/08/31 12:44:42;;;;;;;;;;;22.20;99.90;;;;;;7342106;19;108476;-73
2023/08/31 12:47:09;;;;;;;;;;;22.50;99.90;;;;;;7341373;19;109240;-76
2023/08/31 12:49:36;;;;;;;;;;;22.60;99.90;;;;;;7339532;19;110485;-78
2023/08/31 12:52:04;;;;;;;;;;;22.90;99.90;;;;;;7340131;19;108754;-77
2023/08/31 12:54:31;;;;;;;;;;;23.00;99.90;;;;;;7339490;19;110346;-76
2023/08/31 12:56:58;;;;;;;;;;;23.20;99.90;;;;;;7338749;19;110327;-75
2023/08/31 12:59:25;;;;;;;;;;;23.20;99.90;;;;;;7339730;19;109610;-76
2023/08/31 13:01:53;;;;;;;;;;;23.20;99.90;;;;;;7332729;19;110226;-76
2023/08/31 13:04:20;;;;;;;;;;;23.40;99.90;;;;;;7339449;19;108847;-76
2023/08/31 13:06:48;;;;;;;;;;;23.50;99.90;;;;;;7336565;19;108292;-76
2023/08/31 13:09:15;;;;;;;;;;;23.70;99.90;;;;;;7344111;19;110190;-77
2023/08/31 13:11:42;;;;;;;;;;;23.70;99.90;;;;;;7339399;19;108426;-75
2023/08/31 13:14:10;;;;;;;;;;;24.00;99.90;;;;;;7336879;19;109770;-75
2023/08/31 13:16:39;;;;;;;;;;;24.10;99.90;;;;;;7340153;19;108520;-77
2023/08/31 13:19:06;;;;;;;;;;;24.20;99.90;;;;;;7338633;19;108369;-77
2023/08/31 13:21:33;;;;;;;;;;;24.10;99.90;;;;;;7338187;19;109991;-77
2023/08/31 13:24:01;;;;;;;;;;;23.90;99.90;;;;;;7335611;19;111305;-76
2023/08/31 13:26:28;;;;;;;;;;;23.70;99.90;;;;;;7335232;19;108292;-76
2023/08/31 13:28:56;;;;;;;;;;;23.70;99.90;;;;;;7337978;19;112720;-75
2023/08/31 13:31:23;;;;;;;;;;;23.60;99.90;;;;;;7340570;19;108819;-75
2023/08/31 13:33:50;;;;;;;;;;;23.50;99.90;;;;;;7339636;19;109770;-75
2023/08/31 13:36:18;;;;;;;;;;;23.30;99.90;;;;;;7337910;19;108565;-75
2023/08/31 13:38:45;;;;;;;;;;;23.10;99.90;;;;;;7337220;19;108777;-76
2023/08/31 13:41:12;;;;;;;;;;;23.00;99.90;;;;;;7337859;19;110932;-75
2023/08/31 13:43:39;;;;;;;;;;;23.10;99.90;;;;;;7335768;19;109007;-74
2023/08/31 13:46:06;;;;;;;;;;;23.40;99.90;;;;;;7335875;19;109532;-74
2023/08/31 13:48:34;;;;;;;;;;;23.50;99.90;;;;;;7334410;19;110933;-74
2023/08/31 13:51:01;;;;;;;;;;;23.60;99.90;;;;;;7341383;19;110173;-74
2023/08/31 13:53:28;;;;;;;;;;;23.80;99.90;;;;;;7334869;19;109140;-75
2023/08/31 13:55:55;;;;;;;;;;;23.90;99.90;;;;;;7336662;19;108866;-74
2023/08/31 13:58:22;;;;;;;;;;;23.90;99.90;;;;;;7333838;19;109158;-74
2023/08/31 14:00:49;;;;;;;;;;;23.70;99.90;;;;;;7339480;19;110491;-74
2023/08/31 14:03:17;;;;;;;;;;;23.70;99.90;;;;;;7334345;19;109510;-74
2023/08/31 14:05:47;;;;;;;;;;;23.70;99.90;;;;;;7336865;19;109097;-73
2023/08/31 14:08:14;;;;;;;;;;;23.60;99.90;;;;;;7334930;19;109988;-73
2023/08/31 14:10:41;;;;;;;;;;;23.60;99.90;;;;;;7339141;19;109654;-74